createdAt,value
2022-11-21T00:00:54.728Z,114.34
2022-11-21T00:03:22.184Z,114.19
2022-11-21T00:05:49.659Z,114.38
2022-11-21T00:08:21.449Z,114.41
2022-11-21T00:10:48.681Z,114.74
2022-11-21T00:13:17.968Z,114.91
2022-11-21T00:15:44.760Z,115.05
2022-11-21T00:18:12.804Z,114.86
2022-11-21T00:20:40.699Z,114.93
2022-11-21T00:23:07.788Z,114.96
2022-11-21T00:25:34.878Z,114.82
2022-11-21T00:28:01.801Z,114.83
2022-11-21T00:30:29.043Z,115.01
2022-11-21T00:32:56.048Z,115.28
2022-11-21T00:35:22.940Z,115.47
2022-11-21T00:37:50.812Z,115.60
2022-11-21T00:40:18.185Z,115.70
2022-11-21T00:42:45.127Z,115.79
2022-11-21T00:45:12.108Z,115.91
2022-11-21T00:47:39.050Z,115.86
2022-11-21T00:50:06.205Z,116.08
2022-11-21T00:52:33.109Z,116.01
2022-11-21T00:54:59.789Z,116.25
2022-11-21T00:57:26.673Z,116.18
2022-11-21T00:59:53.928Z,116.09
2022-11-21T01:02:20.926Z,116.17
2022-11-21T01:04:47.800Z,116.12
2022-11-21T01:07:15.015Z,116.12
2022-11-21T01:09:41.968Z,116.06
2022-11-21T01:12:08.791Z,115.89
2022-11-21T01:14:35.589Z,115.81
2022-11-21T01:17:02.375Z,115.83
2022-11-21T01:19:29.159Z,116.09
2022-11-21T01:21:55.920Z,115.96
2022-11-21T01:24:22.635Z,115.69
2022-11-21T01:26:50.979Z,115.54
2022-11-21T01:29:17.721Z,115.66
2022-11-21T01:31:44.511Z,115.97
2022-11-21T01:34:11.446Z,116.17
2022-11-21T01:36:38.122Z,116.13
2022-11-21T01:39:06.422Z,116.15
2022-11-21T01:41:44.622Z,116.03
2022-11-21T01:44:22.466Z,116.02
2022-11-21T01:46:50.822Z,116.02
2022-11-21T01:49:30.992Z,115.76
2022-11-21T01:52:04.863Z,115.92
2022-11-21T01:54:43.129Z,115.92
2022-11-21T01:57:17.693Z,116.14
2022-11-21T02:00:06.897Z,116.23
2022-11-21T02:02:36.879Z,116.09
2022-11-21T02:05:06.978Z,116.14
2022-11-21T02:07:38.892Z,116.16
2022-11-21T02:10:06.690Z,116.19
2022-11-21T02:12:53.294Z,116.25
2022-11-21T02:15:23.104Z,116.38
2022-11-21T02:17:49.988Z,116.32
2022-11-21T02:20:19.392Z,116.34
2022-11-21T02:23:17.228Z,116.44
2022-11-21T02:25:44.271Z,116.46
2022-11-21T02:28:16.584Z,116.45
2022-11-21T02:30:44.191Z,116.18
2022-11-21T02:33:12.085Z,116.12
2022-11-21T02:35:39.501Z,115.97
2022-11-21T02:38:21.152Z,115.80
2022-11-21T02:41:26.460Z,115.60
2022-11-21T02:43:59.164Z,115.63
2022-11-21T02:46:27.881Z,115.67
2022-11-21T02:48:56.632Z,115.54
2022-11-21T02:51:23.366Z,115.16
2022-11-21T02:53:54.938Z,114.99
2022-11-21T02:56:21.878Z,114.99
2022-11-21T02:58:48.883Z,114.92
2022-11-21T03:01:15.665Z,114.66
2022-11-21T03:03:42.394Z,114.67
2022-11-21T03:06:09.402Z,115.21
2022-11-21T03:08:36.081Z,114.91
2022-11-21T03:11:02.802Z,114.93
2022-11-21T03:13:29.509Z,115.06
2022-11-21T03:15:56.255Z,114.80
2022-11-21T03:18:23.093Z,115.04
2022-11-21T03:20:49.819Z,114.87
2022-11-21T03:23:16.496Z,114.74
2022-11-21T03:25:43.238Z,114.81
2022-11-21T03:28:10.092Z,115.05
2022-11-21T03:30:36.732Z,115.24
2022-11-21T03:33:03.821Z,115.06
2022-11-21T03:35:30.531Z,115.22
2022-11-21T03:37:57.240Z,114.88
2022-11-21T03:40:23.975Z,114.53
2022-11-21T03:42:50.828Z,114.82
2022-11-21T03:45:17.740Z,114.73
2022-11-21T03:47:44.427Z,114.58
2022-11-21T03:50:12.076Z,114.54
2022-11-21T03:52:38.998Z,114.59
2022-11-21T03:55:06.093Z,114.60
2022-11-21T03:57:32.792Z,114.41
2022-11-21T03:59:59.671Z,114.50
2022-11-21T04:02:26.341Z,114.31
2022-11-21T04:04:53.155Z,114.26
2022-11-21T04:07:19.941Z,114.18
2022-11-21T04:09:46.682Z,114.19
2022-11-21T04:12:28.278Z,114.12
2022-11-21T04:14:55.454Z,114.07
2022-11-21T04:17:22.154Z,113.86
2022-11-21T04:19:48.894Z,113.71
2022-11-21T04:22:15.927Z,113.99
2022-11-21T04:24:42.666Z,113.78
2022-11-21T04:27:09.469Z,113.64
2022-11-21T04:29:36.371Z,113.87
2022-11-21T04:32:03.102Z,113.61
2022-11-21T04:34:30.006Z,113.65
2022-11-21T04:36:56.961Z,113.87
2022-11-21T04:39:23.739Z,113.62
2022-11-21T04:41:50.434Z,113.74
2022-11-21T04:44:17.084Z,113.90
2022-11-21T04:46:43.927Z,113.63
2022-11-21T04:49:10.966Z,113.18
2022-11-21T04:51:37.647Z,113.20
2022-11-21T04:54:04.431Z,113.54
2022-11-21T04:56:31.160Z,113.83
2022-11-21T04:58:57.847Z,113.83
2022-11-21T05:01:24.647Z,113.93
2022-11-21T05:03:52.639Z,113.82
2022-11-21T05:06:19.420Z,113.93
2022-11-21T05:08:51.620Z,113.89
2022-11-21T05:11:38.368Z,113.74
2022-11-21T05:14:05.212Z,113.72
2022-11-21T05:16:35.256Z,113.77
2022-11-21T05:19:02.155Z,113.56
2022-11-21T05:21:28.935Z,113.45
2022-11-21T05:23:55.633Z,113.38
2022-11-21T05:26:22.541Z,113.22
2022-11-21T05:28:49.234Z,113.21
2022-11-21T05:31:16.079Z,113.33
2022-11-21T05:33:42.869Z,113.11
2022-11-21T05:36:09.737Z,113.02
2022-11-21T05:38:36.517Z,113.07
2022-11-21T05:41:03.222Z,113.02
2022-11-21T05:43:48.083Z,113.03
2022-11-21T05:46:16.119Z,113.15
2022-11-21T05:48:43.332Z,112.92
2022-11-21T05:51:11.437Z,112.90
2022-11-21T05:53:38.729Z,112.75
2022-11-21T05:56:07.452Z,112.95
2022-11-21T05:58:34.731Z,112.94
2022-11-21T06:01:02.370Z,113.09
2022-11-21T06:03:32.535Z,112.93
2022-11-21T06:05:59.673Z,112.65
2022-11-21T06:08:32.238Z,112.45
2022-11-21T06:10:59.049Z,112.80
2022-11-21T06:13:27.468Z,112.83
2022-11-21T06:16:00.211Z,112.64
2022-11-21T06:18:27.846Z,112.78
2022-11-21T06:20:54.834Z,112.64
2022-11-21T06:23:21.693Z,112.57
2022-11-21T06:25:48.381Z,112.84
2022-11-21T06:28:15.057Z,113.30
2022-11-21T06:30:41.711Z,113.22
2022-11-21T06:33:08.506Z,113.01
2022-11-21T06:35:38.543Z,113.45
2022-11-21T06:38:05.374Z,113.27
2022-11-21T06:40:32.215Z,113.39
2022-11-21T06:42:59.054Z,113.12
2022-11-21T06:45:26.122Z,113.22
2022-11-21T06:47:52.834Z,113.04
2022-11-21T06:50:19.568Z,112.97
2022-11-21T06:52:46.319Z,112.68
2022-11-21T06:55:13.329Z,112.98
2022-11-21T06:57:40.173Z,112.70
2022-11-21T07:00:07.675Z,112.73
2022-11-21T07:02:34.346Z,112.39
2022-11-21T07:05:01.086Z,112.17
2022-11-21T07:07:27.949Z,112.35
2022-11-21T07:09:54.887Z,112.65
2022-11-21T07:12:40.326Z,112.51
2022-11-21T07:15:07.595Z,112.63
2022-11-21T07:17:34.363Z,112.72
2022-11-21T07:20:01.134Z,112.72
2022-11-21T07:22:27.859Z,112.78
2022-11-21T07:24:54.809Z,112.73
2022-11-21T07:27:21.651Z,112.56
2022-11-21T07:29:48.358Z,112.87
2022-11-21T07:32:15.658Z,112.64
2022-11-21T07:34:42.350Z,112.70
2022-11-21T07:37:09.140Z,112.77
2022-11-21T07:39:35.983Z,112.50
2022-11-21T07:42:02.721Z,112.33
2022-11-21T07:44:29.468Z,112.48
2022-11-21T07:46:56.332Z,112.74
2022-11-21T07:49:23.162Z,112.83
2022-11-21T07:51:50.171Z,115.50
2022-11-21T07:54:16.925Z,116.80
2022-11-21T07:56:43.934Z,112.64
2022-11-21T07:59:10.918Z,113.50
2022-11-21T08:01:42.600Z,113.20
2022-11-21T08:04:11.927Z,113.46
2022-11-21T08:06:38.897Z,113.39
2022-11-21T08:09:05.614Z,113.12
2022-11-21T08:11:32.417Z,113.13
2022-11-21T08:13:59.641Z,112.73
2022-11-21T08:16:28.082Z,113.27
2022-11-21T08:18:54.987Z,112.84
2022-11-21T08:21:21.696Z,112.48
2022-11-21T08:23:49.001Z,111.45
2022-11-21T08:26:15.866Z,110.71
2022-11-21T08:28:42.677Z,110.39
2022-11-21T08:31:09.426Z,109.30
2022-11-21T08:33:36.284Z,108.65
2022-11-21T08:36:07.318Z,107.69
2022-11-21T08:38:34.109Z,106.57
2022-11-21T08:41:22.186Z,106.30
2022-11-21T08:43:49.039Z,104.89
2022-11-21T08:46:16.827Z,103.99
2022-11-21T08:48:43.687Z,103.74
2022-11-21T08:51:10.392Z,100.32
2022-11-21T08:53:37.145Z,101.33
2022-11-21T08:56:04.666Z,99.74
2022-11-21T08:58:31.639Z,100.35
2022-11-21T09:00:59.511Z,101.11
2022-11-21T09:03:30.782Z,101.24
2022-11-21T09:05:59.294Z,100.91
2022-11-21T09:08:26.205Z,101.14
2022-11-21T09:10:53.033Z,101.20
2022-11-21T09:13:19.910Z,101.95
2022-11-21T09:16:05.356Z,102.00
2022-11-21T09:18:32.224Z,101.03
2022-11-21T09:20:59.149Z,101.14
2022-11-21T09:23:26.125Z,103.33
2022-11-21T09:25:52.974Z,102.22
2022-11-21T09:28:19.720Z,98.65
2022-11-21T09:30:46.366Z,97.34
2022-11-21T09:33:15.481Z,96.77
2022-11-21T09:35:42.638Z,94.02
2022-11-21T09:38:09.759Z,96.80
2022-11-21T09:40:37.009Z,97.26
2022-11-21T09:43:06.626Z,98.07
2022-11-21T09:45:36.546Z,98.06
2022-11-21T09:48:13.544Z,98.26
2022-11-21T09:50:48.207Z,98.46
2022-11-21T09:53:23.712Z,98.12
2022-11-21T09:55:59.573Z,97.14
2022-11-21T09:58:41.786Z,95.97
2022-11-21T10:01:16.650Z,95.97
2022-11-21T10:03:49.368Z,93.64
2022-11-21T10:06:55.624Z,92.07
2022-11-21T10:09:41.124Z,90.14
2022-11-21T10:12:39.684Z,88.95
2022-11-21T10:15:18.651Z,88.57
2022-11-21T10:17:51.487Z,87.48
2022-11-21T10:20:55.950Z,86.77
2022-11-21T10:23:32.337Z,86.00
2022-11-21T10:26:17.353Z,86.66
2022-11-21T10:29:13.303Z,88.87
2022-11-21T10:31:41.712Z,89.88
2022-11-21T10:34:21.970Z,90.24
2022-11-21T10:36:56.930Z,90.16
2022-11-21T10:39:49.245Z,90.89
2022-11-21T10:42:37.826Z,91.44
2022-11-21T10:45:17.089Z,91.87
2022-11-21T10:47:47.028Z,92.59
2022-11-21T10:50:36.874Z,93.50
2022-11-21T10:53:31.349Z,93.98
2022-11-21T10:56:18.709Z,94.62
2022-11-21T10:58:48.365Z,94.43
2022-11-21T11:01:35.198Z,95.20
2022-11-21T11:04:27.293Z,94.27
2022-11-21T11:06:55.777Z,94.75
2022-11-21T11:09:23.762Z,94.52
2022-11-21T11:11:50.759Z,94.84
2022-11-21T11:14:30.253Z,94.35
2022-11-21T11:16:57.537Z,95.50
2022-11-21T11:19:34.210Z,95.64
2022-11-21T11:22:05.319Z,94.94
2022-11-21T11:24:32.080Z,94.46
2022-11-21T11:27:01.109Z,94.59
2022-11-21T11:29:28.107Z,94.99
2022-11-21T11:32:00.893Z,94.07
2022-11-21T11:34:50.783Z,93.85
2022-11-21T11:37:23.565Z,91.02
2022-11-21T11:40:23.684Z,90.72
2022-11-21T11:43:18.167Z,91.23
2022-11-21T11:46:29.296Z,90.66
2022-11-21T11:49:19.939Z,91.72
2022-11-21T11:51:53.460Z,92.73
2022-11-21T11:54:24.478Z,93.09
2022-11-21T11:56:51.411Z,93.29
2022-11-21T11:59:53.846Z,92.71
2022-11-21T12:02:29.422Z,93.43
2022-11-21T12:05:12.927Z,91.34
2022-11-21T12:08:39.743Z,91.66
2022-11-21T12:11:04.062Z,90.27
2022-11-21T12:13:32.785Z,91.18
2022-11-21T12:16:11.931Z,90.61
2022-11-21T12:18:53.193Z,89.89
2022-11-21T12:21:20.839Z,89.87
2022-11-21T12:23:56.076Z,91.06
2022-11-21T12:26:50.549Z,90.16
2022-11-21T12:29:56.995Z,88.76
2022-11-21T12:32:23.808Z,89.36
2022-11-21T12:35:27.861Z,88.56
2022-11-21T12:38:08.381Z,89.18
2022-11-21T12:40:48.619Z,89.45
2022-11-21T12:43:28.073Z,90.11
2022-11-21T12:46:10.864Z,88.80
2022-11-21T12:49:22.469Z,89.39
2022-11-21T12:52:21.923Z,90.63
2022-11-21T12:54:55.995Z,90.11
2022-11-21T12:57:48.948Z,90.05
2022-11-21T13:00:26.122Z,91.39
2022-11-21T13:02:52.873Z,92.18
2022-11-21T13:05:26.166Z,94.56
2022-11-21T13:07:59.387Z,96.24
2022-11-21T13:10:27.270Z,96.99
2022-11-21T13:13:23.664Z,97.29
2022-11-21T13:16:07.933Z,96.97
2022-11-21T13:18:46.115Z,97.04
2022-11-21T13:21:48.296Z,98.00
2022-11-21T13:24:55.181Z,98.89
2022-11-21T13:27:31.035Z,97.45
2022-11-21T13:30:07.344Z,96.80
2022-11-21T13:32:47.633Z,96.46
2022-11-21T13:35:20.425Z,95.54
2022-11-21T13:37:50.354Z,94.20
2022-11-21T13:40:26.206Z,94.56
2022-11-21T13:46:01.200Z,94.67
2022-11-21T13:48:42.452Z,94.16
2022-11-21T13:51:40.425Z,94.87
2022-11-21T13:54:41.947Z,96.68
2022-11-21T13:57:20.776Z,98.28
2022-11-21T13:59:50.912Z,98.74
2022-11-21T14:02:45.665Z,98.75
2022-11-21T14:05:24.555Z,98.85
2022-11-21T14:07:51.566Z,99.97
2022-11-21T14:10:25.216Z,98.51
2022-11-21T14:12:54.377Z,99.13
2022-11-21T14:15:52.713Z,99.53
2022-11-21T14:18:24.371Z,98.54
2022-11-21T14:21:01.963Z,97.05
2022-11-21T14:23:32.506Z,96.52
2022-11-21T14:26:13.969Z,96.78
2022-11-21T14:28:40.660Z,98.23
2022-11-21T14:31:09.379Z,97.99
2022-11-21T14:33:41.200Z,97.87
2022-11-21T14:36:15.590Z,98.68
2022-11-21T14:38:45.217Z,98.84
2022-11-21T14:41:27.224Z,99.85
2022-11-21T14:43:57.155Z,100.70
2022-11-21T14:46:26.316Z,101.26
2022-11-21T14:48:54.673Z,101.57
2022-11-21T14:51:23.866Z,101.62
2022-11-21T14:53:52.871Z,102.09
2022-11-21T14:56:24.598Z,102.98
2022-11-21T14:58:54.118Z,103.08
2022-11-21T15:01:24.576Z,103.50
2022-11-21T15:04:01.745Z,104.18
2022-11-21T15:06:33.290Z,104.98
2022-11-21T15:10:11.579Z,105.34
2022-11-21T15:11:56.983Z,105.82
2022-11-21T15:14:29.858Z,106.05
2022-11-21T15:16:58.345Z,106.50
2022-11-21T15:19:29.125Z,106.63
2022-11-21T15:21:58.152Z,106.69
2022-11-21T15:24:41.686Z,106.84
2022-11-21T15:27:26.898Z,107.39
2022-11-21T15:30:12.435Z,106.81
2022-11-21T15:32:58.653Z,107.68
2022-11-21T15:35:32.100Z,108.45
2022-11-21T15:37:59.356Z,109.07
2022-11-21T15:40:26.332Z,109.41
2022-11-21T15:42:53.005Z,109.53
2022-11-21T15:45:26.839Z,110.03
2022-11-21T15:47:53.717Z,110.42
2022-11-21T15:50:24.589Z,110.20
2022-11-21T15:52:52.314Z,111.20
2022-11-21T15:55:30.230Z,111.20
2022-11-21T15:57:57.246Z,111.32
2022-11-21T16:00:24.036Z,111.49
2022-11-21T16:02:50.799Z,111.52
2022-11-21T16:05:17.533Z,112.08
2022-11-21T16:07:44.771Z,112.17
2022-11-21T16:10:19.827Z,112.57
2022-11-21T16:12:49.521Z,113.31
2022-11-21T16:15:16.549Z,113.47
2022-11-21T16:17:45.452Z,113.80
2022-11-21T16:20:12.511Z,113.81
2022-11-21T16:22:44.164Z,113.71
2022-11-21T16:25:13.895Z,113.71
2022-11-21T16:27:40.603Z,113.51
2022-11-21T16:30:07.838Z,113.43
2022-11-21T16:32:34.567Z,113.23
2022-11-21T16:35:01.350Z,113.13
2022-11-21T16:37:28.389Z,112.94
2022-11-21T16:40:38.729Z,113.10
2022-11-21T16:43:17.940Z,113.01
2022-11-21T16:45:53.608Z,112.18
2022-11-21T16:48:34.670Z,111.82
2022-11-21T16:51:22.389Z,111.55
2022-11-21T16:54:12.604Z,111.37
2022-11-21T17:00:42.271Z,111.71
2022-11-21T17:03:20.274Z,112.17
2022-11-21T17:09:09.806Z,112.80
2022-11-21T17:15:39.330Z,113.27
2022-11-21T17:18:06.643Z,113.35
2022-11-21T17:20:41.629Z,113.54
2022-11-21T17:26:46.047Z,113.35
2022-11-21T17:36:35.175Z,113.61
2022-11-21T17:43:19.681Z,113.90
2022-11-21T17:45:47.630Z,114.02
2022-11-21T17:59:26.937Z,113.90
2022-11-21T18:02:11.686Z,114.01
2022-11-21T18:04:39.479Z,113.99
2022-11-21T18:07:06.870Z,113.30
2022-11-21T18:09:34.469Z,113.50
2022-11-21T18:12:01.323Z,113.44
2022-11-21T18:14:28.407Z,113.82
2022-11-21T18:16:55.358Z,113.88
2022-11-21T18:19:22.388Z,113.96
2022-11-21T18:21:49.153Z,113.82
2022-11-21T18:24:15.951Z,114.15
2022-11-21T18:26:42.809Z,114.03
2022-11-21T18:31:56.788Z,113.59
2022-11-21T18:34:24.193Z,113.39
2022-11-21T18:36:51.007Z,113.26
2022-11-21T18:39:17.881Z,113.08
2022-11-21T18:41:44.665Z,113.42
2022-11-21T18:44:14.670Z,113.42
2022-11-21T18:46:44.031Z,113.53
2022-11-21T18:49:10.780Z,113.04
2022-11-21T18:51:37.534Z,112.72
2022-11-21T18:55:24.687Z,112.68
2022-11-21T18:58:08.289Z,112.67
2022-11-21T19:00:39.029Z,113.03
2022-11-21T19:03:06.502Z,112.74
2022-11-21T19:08:59.485Z,112.17
2022-11-21T19:11:30.812Z,112.23
2022-11-21T19:14:00.896Z,112.10
2022-11-21T19:16:40.324Z,112.16
2022-11-21T19:19:35.696Z,111.84
2022-11-21T19:22:35.137Z,111.00
2022-11-21T19:25:05.308Z,111.36
2022-11-21T19:27:36.144Z,111.61
2022-11-21T19:30:32.090Z,111.10
2022-11-21T19:33:00.046Z,111.01
2022-11-21T19:42:34.906Z,111.26
2022-11-21T19:51:42.216Z,112.07
2022-11-21T19:55:00.745Z,111.87
2022-11-21T20:04:39.424Z,112.16
2022-11-21T20:11:22.812Z,111.48
2022-11-21T20:14:27.756Z,111.11
2022-11-21T20:17:08.415Z,111.80
2022-11-21T20:20:54.013Z,111.69
2022-11-21T20:23:47.175Z,111.36
2022-11-21T20:26:58.578Z,111.20
2022-11-21T20:29:27.883Z,110.84
2022-11-21T20:31:59.181Z,110.89
2022-11-21T20:34:38.277Z,110.55
2022-11-21T20:37:05.681Z,110.01
2022-11-21T20:39:50.955Z,109.77
2022-11-21T20:42:30.820Z,110.09
2022-11-21T20:45:54.243Z,110.13
2022-11-21T20:47:44.331Z,110.22
2022-11-21T20:50:21.460Z,110.43
2022-11-21T20:55:45.094Z,110.49
2022-11-21T20:58:12.291Z,110.74
2022-11-21T21:00:40.503Z,110.82
2022-11-21T21:03:09.893Z,110.62
2022-11-21T21:05:36.616Z,110.62
2022-11-21T21:08:03.745Z,110.56
2022-11-21T21:10:46.024Z,110.55
2022-11-21T21:13:17.966Z,109.59
2022-11-21T21:15:44.808Z,109.46
2022-11-21T21:18:12.432Z,109.21
2022-11-21T21:21:01.717Z,109.72
2022-11-21T21:23:25.959Z,109.41
2022-11-21T21:25:53.256Z,109.15
2022-11-21T21:28:19.985Z,108.99
2022-11-21T21:30:47.446Z,108.96
2022-11-21T21:33:14.181Z,108.17
2022-11-21T21:35:41.040Z,108.00
2022-11-21T21:38:09.057Z,108.57
2022-11-21T21:40:36.127Z,108.89
2022-11-21T21:43:02.831Z,108.61
2022-11-21T21:45:29.697Z,108.91
2022-11-21T21:47:56.462Z,108.63
2022-11-21T21:50:23.422Z,108.59
2022-11-21T21:52:55.599Z,108.47
2022-11-21T21:55:26.543Z,108.56
2022-11-21T21:58:03.906Z,108.57
2022-11-21T22:00:42.472Z,108.58
2022-11-21T22:03:11.064Z,108.39
2022-11-21T22:05:39.366Z,108.58
2022-11-21T22:08:08.535Z,108.72
2022-11-21T22:10:36.401Z,107.99
2022-11-21T22:13:04.527Z,107.98
2022-11-21T22:15:32.190Z,107.63
2022-11-21T22:17:59.152Z,107.53
2022-11-21T22:20:26.311Z,107.17
2022-11-21T22:23:09.459Z,107.33
2022-11-21T22:25:50.399Z,107.15
2022-11-21T22:28:17.190Z,107.19
2022-11-21T22:30:56.532Z,107.20
2022-11-21T22:33:24.107Z,106.79
2022-11-21T22:35:50.826Z,106.69
2022-11-21T22:38:17.871Z,106.73
2022-11-21T22:40:46.187Z,106.55
2022-11-21T22:43:12.966Z,106.78
2022-11-21T22:45:39.742Z,106.82
2022-11-21T22:48:06.852Z,106.82
2022-11-21T22:50:33.685Z,106.59
2022-11-21T22:53:00.847Z,106.36
2022-11-21T22:55:27.710Z,106.76
2022-11-21T22:57:54.407Z,106.46
2022-11-21T23:00:21.194Z,106.68
2022-11-21T23:02:48.050Z,106.14
2022-11-21T23:05:14.887Z,106.24
2022-11-21T23:07:41.610Z,106.24
2022-11-21T23:10:09.075Z,106.54
2022-11-21T23:12:35.795Z,106.65
2022-11-21T23:15:02.645Z,106.97
2022-11-21T23:17:29.320Z,106.94
2022-11-21T23:19:56.224Z,106.78
2022-11-21T23:22:22.890Z,106.95
2022-11-21T23:24:49.672Z,107.17
2022-11-21T23:27:16.535Z,107.31
2022-11-21T23:29:43.267Z,107.49
2022-11-21T23:32:10.145Z,107.16
2022-11-21T23:34:36.841Z,107.12
2022-11-21T23:37:03.641Z,107.75
2022-11-21T23:39:30.852Z,108.29
2022-11-21T23:41:57.911Z,108.55
2022-11-21T23:44:24.886Z,108.55
2022-11-21T23:46:51.570Z,108.90
2022-11-21T23:49:18.313Z,108.72
2022-11-21T23:51:45.010Z,108.54
2022-11-21T23:54:11.799Z,108.18
2022-11-21T23:56:38.588Z,107.61
2022-11-21T23:59:05.286Z,107.20
